Time;durP1;ratioP1;P1;durP2;ratioP2;P2;SDS_P1;SDS_P2;PMS_P1;PMS_P2;Temp;Humidity;BMP_temperature;BMP_pressure;BME280_temperature;BME280_humidity;BME280_pressure;Samples;Min_cycle;Max_cycle;Signal;HPM_P1;HPM_P2
2022/06/21 00:01:02;;;;;;;5.45;1.23;;;10.80;99.90;;;;;;5073792;28;20043;-73
2022/06/21 00:03:28;;;;;;;8.20;1.98;;;10.80;99.90;;;;;;5077386;28;20070;-73
2022/06/21 00:05:54;;;;;;;4.25;1.38;;;10.80;99.90;;;;;;5077273;28;20025;-73
2022/06/21 00:08:27;;;;;;;5.18;1.50;;;10.80;99.90;;;;;;5077465;28;20143;-73
2022/06/21 00:10:53;;;;;;;6.13;2.25;;;10.70;99.90;;;;;;5077163;28;20431;-73
2022/06/21 00:13:22;;;;;;;2.67;0.73;;;10.70;99.90;;;;;;5077112;28;20034;-73
2022/06/21 00:15:49;;;;;;;6.30;0.88;;;10.70;99.90;;;;;;5076920;28;20029;-73
2022/06/21 00:18:18;;;;;;;9.38;1.38;;;10.70;99.90;;;;;;5076832;28;20370;-73
2022/06/21 00:20:44;;;;;;;4.88;1.25;;;10.70;99.90;;;;;;5058897;28;20020;-74
2022/06/21 00:23:16;;;;;;;7.88;1.42;;;10.60;99.90;;;;;;5059129;28;20496;-73
2022/06/21 00:25:42;;;;;;;4.03;1.23;;;10.60;99.90;;;;;;5077418;28;20086;-73
2022/06/21 00:28:08;;;;;;;4.22;1.38;;;10.60;99.90;;;;;;5058967;28;20473;-73
2022/06/21 00:30:33;;;;;;;4.25;1.35;;;10.60;99.90;;;;;;5076974;28;20086;-74
2022/06/21 00:32:59;;;;;;;5.60;2.40;;;10.50;99.90;;;;;;5058666;28;20107;-73
2022/06/21 00:35:26;;;;;;;6.88;1.55;;;10.50;99.90;;;;;;5076807;28;20059;-74
2022/06/21 00:37:53;;;;;;;5.72;1.92;;;10.50;99.90;;;;;;5076646;28;20498;-74
2022/06/21 00:40:32;;;;;;;5.57;1.65;;;10.50;99.90;;;;;;5058524;28;20027;-73
2022/06/21 00:43:09;;;;;;;6.18;1.77;;;10.50;99.90;;;;;;5058900;28;20021;-73
2022/06/21 00:45:37;;;;;;;5.65;2.13;;;10.40;99.90;;;;;;5076308;28;20035;-73
2022/06/21 00:48:37;;;;;;;7.78;1.83;;;10.50;99.90;;;;;;5076376;28;20032;-73
2022/06/21 00:51:27;;;;;;;5.13;1.25;;;10.50;99.90;;;;;;5043404;28;20512;-73
2022/06/21 00:54:03;;;;;;;4.82;1.58;;;10.40;99.90;;;;;;5075602;28;20375;-74
2022/06/21 00:56:34;;;;;;;3.00;0.80;;;10.40;99.90;;;;;;5076846;28;20367;-73
2022/06/21 00:59:22;;;;;;;7.38;1.52;;;10.40;99.90;;;;;;5076309;28;20027;-74
2022/06/21 01:01:49;;;;;;;9.32;1.95;;;10.40;99.90;;;;;;5076439;28;20478;-74
2022/06/21 01:04:21;;;;;;;6.45;1.27;;;10.40;99.90;;;;;;5076386;28;20469;-74
2022/06/21 01:06:50;;;;;;;8.82;2.35;;;10.40;99.90;;;;;;5058176;28;20025;-74
2022/06/21 01:09:20;;;;;;;;;;;10.40;99.90;;;;;;5058562;28;20111;-74
2022/06/21 01:11:50;;;;;;;5.70;1.15;;;10.40;99.90;;;;;;5076629;28;19991;-74
2022/06/21 01:14:19;;;;;;;7.63;0.80;;;10.40;99.90;;;;;;5075554;28;20021;-74
2022/06/21 01:16:45;;;;;;;3.78;1.33;;;10.40;99.90;;;;;;5075916;28;20040;-74
2022/06/21 01:19:25;;;;;;;7.38;1.20;;;10.40;99.90;;;;;;5076116;28;20059;-74
2022/06/21 01:21:57;;;;;;;3.25;0.85;;;10.40;99.90;;;;;;5076485;28;20024;-74
2022/06/21 01:24:38;;;;;;;3.97;1.00;;;10.40;99.90;;;;;;5057753;28;20154;-74
2022/06/21 01:27:07;;;;;;;8.40;1.45;;;10.40;99.90;;;;;;5076211;28;20025;-74
2022/06/21 01:29:33;;;;;;;;;;;10.40;99.90;;;;;;5076269;28;20163;-74
2022/06/21 01:32:02;;;;;;;6.63;0.88;;;10.40;99.90;;;;;;5075474;28;19904;-74
2022/06/21 01:34:28;;;;;;;5.07;0.70;;;10.40;99.90;;;;;;5075567;28;20074;-74
2022/06/21 01:37:02;;;;;;;16.85;1.17;;;10.40;99.90;;;;;;5075365;28;20032;-74
2022/06/21 01:39:39;;;;;;;4.65;0.75;;;10.30;99.90;;;;;;5057518;28;20028;-74
2022/06/21 01:42:19;;;;;;;4.13;0.63;;;10.30;99.90;;;;;;5075332;28;20025;-74
2022/06/21 01:44:53;;;;;;;2.95;0.63;;;10.30;99.90;;;;;;5075223;28;20017;-74
2022/06/21 01:47:25;;;;;;;3.85;0.30;;;10.20;99.90;;;;;;5075286;28;20020;-75
2022/06/21 01:50:01;;;;;;;2.72;1.05;;;10.20;99.90;;;;;;5075851;28;20462;-75
2022/06/21 01:52:31;;;;;;;3.25;0.70;;;10.10;99.90;;;;;;5075693;28;20028;-74
2022/06/21 01:55:11;;;;;;;6.13;0.90;;;10.10;99.90;;;;;;5057058;28;20112;-75
2022/06/21 01:57:38;;;;;;;2.92;0.88;;;10.10;99.90;;;;;;5074905;28;20090;-74
2022/06/21 02:00:05;;;;;;;4.50;0.73;;;10.00;99.90;;;;;;5056793;28;20115;-74
2022/06/21 02:02:46;;;;;;;3.05;0.95;;;10.00;99.90;;;;;;5057042;28;20051;-74
2022/06/21 02:05:17;;;;;;;4.75;0.88;;;10.00;99.90;;;;;;5057022;28;20432;-74
2022/06/21 02:07:47;;;;;;;5.55;0.90;;;9.90;99.90;;;;;;5075246;28;20024;-74
2022/06/21 02:10:41;;;;;;;4.47;0.80;;;9.90;99.90;;;;;;5075313;28;20103;-74
2022/06/21 02:13:16;;;;;;;5.78;1.33;;;9.80;99.90;;;;;;5074638;28;20070;-74
2022/06/21 02:15:56;;;;;;;3.05;0.75;;;9.80;99.90;;;;;;5075102;28;20187;-74
2022/06/21 02:18:24;;;;;;;3.13;0.93;;;9.80;99.90;;;;;;5075260;28;20412;-74
2022/06/21 02:21:00;;;;;;;2.70;0.60;;;9.80;99.90;;;;;;5074729;28;20107;-74
2022/06/21 02:23:26;;;;;;;4.78;1.15;;;9.70;99.90;;;;;;5074754;28;20032;-74
2022/06/21 02:25:54;;;;;;;2.72;0.60;;;9.70;99.90;;;;;;5074661;28;20016;-74
2022/06/21 02:28:21;;;;;;;4.90;0.90;;;9.60;99.90;;;;;;5074705;28;20470;-74
2022/06/21 02:30:50;;;;;;;5.78;1.63;;;9.70;99.90;;;;;;5056537;28;20071;-74
2022/06/21 02:33:18;;;;;;;;;;;9.70;99.90;;;;;;5056669;28;20473;-74
2022/06/21 02:35:50;;;;;;;4.57;1.07;;;9.70;99.90;;;;;;5074648;28;19908;-74
2022/06/21 02:38:39;;;;;;;2.55;0.85;;;9.60;99.90;;;;;;5074306;28;20056;-75
2022/06/21 02:41:19;;;;;;;1.77;0.60;;;9.60;99.90;;;;;;5074651;28;20059;-74
2022/06/21 02:43:55;;;;;;;2.75;1.00;;;9.60;99.90;;;;;;5056068;28;20434;-74
2022/06/21 02:46:26;;;;;;;4.75;1.33;;;9.60;99.90;;;;;;5056197;28;20462;-74
2022/06/21 02:49:07;;;;;;;3.42;0.60;;;9.60;99.90;;;;;;5056156;28;20024;-74
2022/06/21 02:51:38;;;;;;;2.38;1.10;;;9.60;99.90;;;;;;5074163;28;20036;-74
2022/06/21 02:54:15;;;;;;;3.70;0.80;;;9.60;99.90;;;;;;5055954;28;20081;-74
2022/06/21 02:57:25;;;;;;;2.90;0.73;;;9.60;99.90;;;;;;5056005;28;20032;-74
2022/06/21 02:59:52;;;;;;;2.22;0.80;;;9.60;99.90;;;;;;5054385;28;20402;-74
2022/06/21 03:02:22;;;;;;;2.97;0.88;;;9.50;99.90;;;;;;5055887;28;20025;-74
2022/06/21 03:04:53;;;;;;;2.28;0.68;;;9.50;99.90;;;;;;5074798;28;20023;-74
2022/06/21 03:07:42;;;;;;;3.63;1.20;;;9.40;99.90;;;;;;5056020;28;20421;-74
2022/06/21 03:10:16;;;;;;;2.47;0.77;;;9.40;99.90;;;;;;5073083;28;20033;-74
2022/06/21 03:12:42;;;;;;;0.98;0.70;;;9.40;99.90;;;;;;5073652;28;20024;-74
2022/06/21 03:15:10;;;;;;;1.77;0.38;;;9.40;99.90;;;;;;5073686;28;20032;-74
2022/06/21 03:17:59;;;;;;;4.75;0.55;;;9.30;99.90;;;;;;5073536;28;20509;-74
2022/06/21 03:20:25;;;;;;;2.33;0.88;;;9.30;99.90;;;;;;5055511;28;20504;-73
2022/06/21 03:22:54;;;;;;;4.07;1.00;;;9.40;99.90;;;;;;5073421;28;20477;-73
2022/06/21 03:25:25;;;;;;;1.58;0.73;;;9.50;99.90;;;;;;5073437;28;20074;-74
2022/06/21 03:27:54;;;;;;;2.80;0.88;;;9.30;99.90;;;;;;5055454;28;20020;-74
2022/06/21 03:30:25;;;;;;;3.83;0.93;;;9.30;99.90;;;;;;5073434;28;20025;-74
2022/06/21 03:32:54;;;;;;;3.58;1.00;;;9.20;99.90;;;;;;5055821;28;20028;-74
2022/06/21 03:35:20;;;;;;;3.70;1.05;;;9.20;99.90;;;;;;5055161;28;20067;-74
2022/06/21 03:37:47;;;;;;;2.47;0.98;;;9.20;99.90;;;;;;5072945;28;20028;-74
2022/06/21 03:43:14;;;;;;;5.32;0.93;;;9.20;99.90;;;;;;5073674;28;20138;-74
2022/06/21 03:45:43;;;;;;;5.03;0.88;;;9.20;99.90;;;;;;5073830;28;20074;-75
2022/06/21 03:48:18;;;;;;;2.83;1.02;;;9.20;99.90;;;;;;5073606;28;20028;-75
2022/06/21 03:50:53;;;;;;;1.15;0.57;;;9.20;99.90;;;;;;5055292;28;20017;-75
2022/06/21 03:53:26;;;;;;;6.13;1.88;;;9.20;99.90;;;;;;5055497;28;20103;-75
2022/06/21 03:56:03;;;;;;;4.32;0.90;;;9.20;99.90;;;;;;5055242;28;20025;-74
2022/06/21 03:59:01;;;;;;;3.00;1.00;;;9.30;99.90;;;;;;5074067;28;20359;-74
2022/06/21 04:02:00;;;;;;;4.68;1.33;;;9.30;99.90;;;;;;5073670;28;20059;-74
2022/06/21 04:04:31;;;;;;;;;;;9.40;99.90;;;;;;5050512;28;20068;-74
2022/06/21 04:07:05;;;;;;;2.42;0.90;;;9.50;99.90;;;;;;5073093;28;19911;-74
2022/06/21 04:09:51;;;;;;;3.85;1.35;;;9.50;99.90;;;;;;5073178;28;20093;-74
2022/06/21 04:12:24;;;;;;;2.00;1.02;;;9.60;99.90;;;;;;5073029;28;20052;-74
2022/06/21 04:15:07;;;;;;;3.67;1.30;;;9.60;99.90;;;;;;5056608;28;20024;-74
2022/06/21 04:18:16;;;;;;;4.00;1.48;;;10.00;99.90;;;;;;5073051;28;20021;-74
2022/06/21 04:21:05;;;;;;;6.45;1.65;;;9.70;99.90;;;;;;5056769;28;20040;-74
2022/06/21 04:23:40;;;;;;;3.83;1.60;;;9.80;99.90;;;;;;5072922;28;20017;-74
2022/06/21 04:26:22;;;;;;;3.97;1.70;;;9.90;99.90;;;;;;5054921;28;20111;-74
2022/06/21 04:29:11;;;;;;;3.75;1.45;;;10.00;99.90;;;;;;5073529;28;20017;-74
2022/06/21 04:31:44;;;;;;;5.88;1.63;;;10.10;99.90;;;;;;5073497;28;20481;-75
2022/06/21 04:34:20;;;;;;;3.20;1.55;;;10.20;99.90;;;;;;5073673;28;20035;-74
2022/06/21 04:36:56;;;;;;;4.88;1.33;;;10.30;99.90;;;;;;5055079;28;20058;-74
2022/06/21 04:39:31;;;;;;;2.25;1.30;;;10.40;99.90;;;;;;5073326;28;20032;-74
2022/06/21 04:42:00;;;;;;;4.55;1.55;;;10.50;99.90;;;;;;5073367;28;20020;-74
2022/06/21 04:44:41;;;;;;;4.90;1.52;;;10.60;99.90;;;;;;5072931;28;20025;-74
2022/06/21 04:47:22;;;;;;;4.63;1.20;;;10.70;99.90;;;;;;5054748;28;20470;-74
2022/06/21 04:49:54;;;;;;;2.90;1.77;;;10.90;99.90;;;;;;5076309;28;20027;-74
2022/06/21 04:52:29;;;;;;;5.57;1.88;;;11.00;99.90;;;;;;5076937;28;20028;-74
2022/06/21 04:54:56;;;;;;;3.63;2.28;;;11.10;99.90;;;;;;5076340;28;20023;-74
2022/06/21 04:57:26;;;;;;;6.03;2.20;;;11.20;99.90;;;;;;5076088;28;20024;-74
2022/06/21 04:59:54;;;;;;;3.13;1.27;;;11.40;99.90;;;;;;5076479;28;20044;-75
2022/06/21 05:02:27;;;;;;;4.47;1.33;;;11.50;99.90;;;;;;5058460;28;20021;-75
2022/06/21 05:05:02;;;;;;;2.72;0.60;;;11.70;99.90;;;;;;5076361;28;20024;-74
2022/06/21 05:07:32;;;;;;;6.53;1.40;;;11.80;99.90;;;;;;5076680;28;20100;-75
2022/06/21 05:09:59;;;;;;;4.47;1.00;;;12.00;99.90;;;;;;5076831;28;20025;-75
2022/06/21 05:12:31;;;;;;;4.70;1.08;;;12.20;99.90;;;;;;5057938;28;20024;-74
2022/06/21 05:15:00;;;;;;;3.55;0.47;;;12.30;99.90;;;;;;5058333;28;20035;-74
2022/06/21 05:17:27;;;;;;;4.53;0.45;;;12.40;99.90;;;;;;5075927;28;20483;-74
2022/06/21 05:19:57;;;;;;;2.25;0.45;;;12.50;99.90;;;;;;5057835;28;20504;-74
2022/06/21 05:22:37;;;;;;;2.03;0.55;;;12.70;99.90;;;;;;5076104;28;20024;-75
2022/06/21 05:25:13;;;;;;;5.63;0.73;;;12.90;99.90;;;;;;5076000;28;20024;-75
2022/06/21 05:27:46;;;;;;;4.18;0.35;;;13.10;99.90;;;;;;5057908;28;20119;-75
2022/06/21 05:30:15;;;;;;;4.35;0.93;;;13.60;99.90;;;;;;5076542;28;20033;-75
2022/06/21 05:32:52;;;;;;;3.08;0.57;;;14.00;99.90;;;;;;5075963;28;20020;-75
2022/06/21 05:35:21;;;;;;;4.25;0.40;;;14.30;99.90;;;;;;5075477;28;20078;-77
2022/06/21 05:37:49;;;;;;;3.78;0.35;;;14.80;99.90;;;;;;5057933;28;20107;-75
2022/06/21 05:40:30;;;;;;;13.38;1.25;;;14.90;99.90;;;;;;5057492;28;20020;-75
2022/06/21 05:42:56;;;;;;;2.78;1.05;;;14.90;99.90;;;;;;5075712;28;20025;-75
2022/06/21 05:45:28;;;;;;;0.88;0.20;;;14.80;99.90;;;;;;5075408;28;20021;-76
2022/06/21 05:47:59;;;;;;;2.10;0.45;;;14.80;99.90;;;;;;5057173;28;20020;-76
2022/06/21 05:50:29;;;;;;;2.03;0.73;;;14.80;99.90;;;;;;5075125;28;20477;-77
2022/06/21 05:53:01;;;;;;;0.85;0.20;;;14.90;99.90;;;;;;5075312;28;20025;-75
2022/06/21 05:55:36;;;;;;;4.18;0.13;;;14.80;99.90;;;;;;5057340;28;20470;-75
2022/06/21 05:58:08;;;;;;;3.75;0.60;;;15.00;99.90;;;;;;5076176;28;20024;-75
2022/06/21 06:00:45;;;;;;;4.82;0.38;;;15.20;99.90;;;;;;5088478;22;20530;-75
2022/06/21 06:03:22;;;;;;;3.13;0.50;;;15.30;99.90;;;;;;5095276;28;20095;-76
2022/06/21 06:05:51;;;;;;;4.15;0.60;;;15.40;99.90;;;;;;5093904;28;20552;-75
2022/06/21 06:08:22;;;;;;;;;;;15.60;99.90;;;;;;5095601;28;20537;-75
2022/06/21 06:10:53;;;;;;;0.82;0.20;;;15.80;99.90;;;;;;5076883;28;19911;-75
2022/06/21 06:13:26;;;;;;;2.25;0.10;;;16.20;99.90;;;;;;5076520;28;20118;-75
2022/06/21 06:15:55;;;;;;;1.88;0.25;;;16.40;99.90;;;;;;5094922;28;20164;-75
2022/06/21 06:18:40;;;;;;;4.43;0.45;;;16.40;99.90;;;;;;5076848;28;20052;-75
2022/06/21 06:21:44;;;;;;;1.17;0.22;;;16.50;99.90;;;;;;5095269;28;20125;-75
2022/06/21 06:24:28;;;;;;;3.47;0.57;;;16.40;99.90;;;;;;5049942;28;20036;-76
2022/06/21 06:26:59;;;;;;;2.20;0.00;;;17.70;99.90;;;;;;5095205;28;20069;-75
2022/06/21 06:29:36;;;;;;;2.92;0.10;;;16.80;99.90;;;;;;5095198;28;20023;-77
2022/06/21 06:32:11;;;;;;;2.13;0.10;;;16.90;99.90;;;;;;5076558;28;20035;-74
2022/06/21 06:34:42;;;;;;;3.45;0.28;;;17.10;99.90;;;;;;5095178;28;20453;-74
2022/06/21 06:37:25;;;;;;;3.38;0.10;;;17.10;99.90;;;;;;5094759;28;20023;-76
2022/06/21 06:39:51;;;;;;;8.00;0.50;;;17.20;99.90;;;;;;5076702;28;20016;-75
2022/06/21 06:42:23;;;;;;;1.20;0.20;;;17.30;99.90;;;;;;5094298;28;20573;-75
2022/06/21 06:44:52;;;;;;;5.05;0.00;;;17.50;99.90;;;;;;5094406;28;20028;-75
2022/06/21 06:47:25;;;;;;;1.10;0.17;;;17.60;99.90;;;;;;5075999;28;20028;-75
2022/06/21 06:50:01;;;;;;;2.85;0.00;;;17.70;99.90;;;;;;5076212;28;20024;-75
2022/06/21 06:52:33;;;;;;;2.45;0.10;;;17.60;99.90;;;;;;5094404;28;20024;-75
2022/06/21 06:55:08;;;;;;;3.97;0.00;;;17.60;99.90;;;;;;5094447;28;20030;-75
2022/06/21 06:57:39;;;;;;;3.53;0.03;;;17.80;99.90;;;;;;5075740;28;20052;-76
2022/06/21 07:00:34;;;;;;;1.90;0.10;;;17.90;99.90;;;;;;5093795;28;20024;-75
2022/06/21 07:03:30;;;;;;;3.60;0.38;;;17.80;99.90;;;;;;5091568;28;20076;-75
2022/06/21 07:06:10;;;;;;;5.13;0.50;;;17.80;99.90;;;;;;5094326;28;20020;-75
2022/06/21 07:08:51;;;;;;;2.97;0.20;;;17.80;99.90;;;;;;5093877;28;20073;-75
2022/06/21 07:11:32;;;;;;;1.00;0.00;;;17.90;99.90;;;;;;5074879;28;20039;-75
2022/06/21 07:14:00;;;;;;;0.40;0.00;;;18.00;99.90;;;;;;5093973;28;20024;-73
2022/06/21 07:16:27;;;;;;;2.70;0.40;;;18.00;99.90;;;;;;5093769;28;20397;-74
2022/06/21 07:18:57;;;;;;;3.03;0.28;;;18.00;99.90;;;;;;5093904;28;20396;-74
2022/06/21 07:21:23;;;;;;;3.55;0.32;;;17.90;99.90;;;;;;5093814;28;20027;-75
2022/06/21 07:23:52;;;;;;;5.35;0.30;;;18.00;99.90;;;;;;5094044;28;20111;-75
2022/06/21 07:26:28;;;;;;;2.15;0.10;;;18.10;99.90;;;;;;5093872;28;20074;-76
2022/06/21 07:29:07;;;;;;;1.25;0.00;;;18.20;99.90;;;;;;5094281;28;20024;-76
2022/06/21 07:31:42;;;;;;;4.43;0.50;;;18.20;99.90;;;;;;5094382;28;20059;-76
2022/06/21 07:34:15;;;;;;;1.35;0.28;;;18.40;99.90;;;;;;5075707;28;20073;-77
2022/06/21 07:36:48;;;;;;;0.93;0.13;;;18.50;99.90;;;;;;5093542;28;20388;-77
2022/06/21 07:39:27;;;;;;;5.45;0.10;;;18.60;99.90;;;;;;5075582;28;20025;-77
2022/06/21 07:42:03;;;;;;;2.50;0.10;;;18.50;99.90;;;;;;5093471;28;20027;-76
2022/06/21 07:44:41;;;;;;;7.38;0.73;;;18.60;99.90;;;;;;5075613;28;20020;-76
2022/06/21 07:47:14;;;;;;;5.88;0.10;;;18.60;99.90;;;;;;5094167;28;20103;-77
2022/06/21 07:49:53;;;;;;;2.25;0.00;;;18.70;99.90;;;;;;5093810;28;20020;-76
2022/06/21 07:52:30;;;;;;;1.23;0.00;;;18.80;99.90;;;;;;5075436;28;20020;-76
2022/06/21 07:55:00;;;;;;;2.13;0.10;;;18.80;99.90;;;;;;5093502;28;20020;-77
2022/06/21 07:57:39;;;;;;;1.35;0.38;;;18.70;99.90;;;;;;5093586;28;20031;-76
2022/06/21 08:00:13;;;;;;;4.10;0.10;;;18.40;99.90;;;;;;5093119;28;20028;-76
2022/06/21 08:08:45;;;;;;;4.00;0.75;;;18.20;99.90;;;;;;5094458;28;20081;-76
2022/06/21 08:11:38;;;;;;;2.22;0.05;;;18.30;99.90;;;;;;5093357;28;20468;-76
2022/06/21 08:14:03;;;;;;;3.83;0.45;;;18.40;99.90;;;;;;5093986;28;20157;-77
2022/06/21 08:16:36;;;;;;;1.83;0.20;;;18.50;99.90;;;;;;5075125;28;20122;-76
2022/06/21 08:19:17;;;;;;;2.40;0.10;;;18.60;99.90;;;;;;5093450;28;20020;-75
2022/06/21 08:22:16;;;;;;;1.98;0.10;;;18.80;99.90;;;;;;5075099;28;20036;-76
2022/06/21 08:25:10;;;;;;;2.70;0.10;;;19.00;99.90;;;;;;5052446;28;20107;-75
2022/06/21 08:27:52;;;;;;;2.08;0.17;;;18.80;99.90;;;;;;5097028;28;20024;-75
2022/06/21 08:30:24;;;;;;;1.65;0.03;;;18.60;99.90;;;;;;5097159;28;20103;-77
2022/06/21 08:33:03;;;;;;;3.83;0.00;;;18.70;99.90;;;;;;5078848;28;20028;-76
2022/06/21 08:35:33;;;;;;;;;;;18.90;99.90;;;;;;5097161;28;20081;-76
2022/06/21 08:38:20;;;;;;;3.55;0.00;;;19.10;99.90;;;;;;5096728;28;19904;-77
2022/06/21 08:44:36;;;;;;;3.95;0.13;;;19.50;99.90;;;;;;5097009;28;20396;-74
2022/06/21 08:47:27;;;;;;;3.92;0.32;;;19.60;99.20;;;;;;5096457;28;20056;-74
2022/06/21 08:50:36;;;;;;;2.75;0.30;;;19.40;99.90;;;;;;5096629;28;20121;-74
2022/06/21 08:53:26;;;;;;;0.38;0.08;;;19.50;99.90;;;;;;5097027;28;20020;-75
2022/06/21 08:56:49;;;;;;;2.00;0.45;;;19.50;98.00;;;;;;5096932;28;20420;-74
2022/06/21 08:59:20;;;;;;;3.35;0.32;;;19.30;98.90;;;;;;5014250;28;20483;-74
2022/06/21 09:02:14;;;;;;;3.28;0.30;;;19.30;98.60;;;;;;5014226;28;20041;-74
2022/06/21 09:05:07;;;;;;;2.20;0.00;;;19.30;99.90;;;;;;5068727;28;20032;-74
2022/06/21 09:08:08;;;;;;;0.38;0.00;;;19.60;99.90;;;;;;5096514;28;20024;-74
2022/06/21 09:10:59;;;;;;;1.00;0.00;;;19.70;99.30;;;;;;5054676;28;20040;-75
2022/06/21 09:13:47;;;;;;;2.60;0.20;;;19.90;97.50;;;;;;5096760;28;20032;-74
2022/06/21 09:16:20;;;;;;;1.77;0.10;;;19.90;98.80;;;;;;5096035;28;20115;-74
2022/06/21 09:18:58;;;;;;;2.00;0.08;;;20.10;96.20;;;;;;5096155;28;20477;-74
2022/06/21 09:21:44;;;;;;;1.15;0.00;;;20.20;96.70;;;;;;5077638;28;20036;-74
2022/06/21 09:24:42;;;;;;;4.88;0.35;;;20.30;96.30;;;;;;5096970;28;20095;-74
2022/06/21 09:27:14;;;;;;;;;;;20.70;96.50;;;;;;5096115;28;20054;-74
2022/06/21 09:29:52;;;;;;;0.20;0.00;;;21.00;93.00;;;;;;5096156;28;19904;-74
2022/06/21 09:32:47;;;;;;;1.13;0.10;;;21.30;91.80;;;;;;5095837;28;20028;-74
2022/06/21 09:35:32;;;;;;;0.90;0.20;;;21.50;87.40;;;;;;5084067;28;20047;-74
2022/06/21 09:38:16;;;;;;;1.30;0.00;;;21.30;85.30;;;;;;5095708;28;20205;-74
2022/06/21 09:41:07;;;;;;;1.95;0.22;;;21.40;89.00;;;;;;5095474;28;20542;-74
2022/06/21 09:43:48;;;;;;;1.58;0.00;;;21.70;90.50;;;;;;5095360;28;20028;-75
2022/06/21 09:46:21;;;;;;;1.42;0.00;;;21.70;83.90;;;;;;5095681;28;20024;-75
2022/06/21 09:49:09;;;;;;;4.05;0.00;;;21.50;87.80;;;;;;5077266;28;20020;-75
2022/06/21 09:51:34;;;;;;;0.55;0.00;;;21.60;87.70;;;;;;5095449;28;20032;-75
2022/06/21 09:54:25;;;;;;;1.98;0.00;;;21.80;86.60;;;;;;5095138;28;20027;-75
2022/06/21 09:57:07;;;;;;;2.03;0.00;;;22.10;86.80;;;;;;5077102;28;20024;-75
2022/06/21 09:59:44;;;;;;;1.33;0.17;;;22.10;84.10;;;;;;5095161;28;20026;-75
2022/06/21 10:02:25;;;;;;;1.20;0.00;;;21.90;81.30;;;;;;5095049;28;20523;-75
2022/06/21 10:05:10;;;;;;;0.43;0.00;;;21.50;79.80;;;;;;5095649;28;20020;-75
2022/06/21 10:08:00;;;;;;;1.67;0.00;;;21.20;83.70;;;;;;5095131;28;20012;-74
2022/06/21 10:10:34;;;;;;;0.70;0.00;;;21.20;87.60;;;;;;5095264;28;20028;-75
2022/06/21 10:13:06;;;;;;;1.95;0.13;;;21.10;85.00;;;;;;5077061;28;20035;-74
2022/06/21 10:16:08;;;;;;;1.10;0.00;;;21.10;89.60;;;;;;5095532;28;20020;-74
2022/06/21 10:18:42;;;;;;;3.10;0.20;;;21.10;88.60;;;;;;5094488;28;20035;-75
2022/06/21 10:21:20;;;;;;;0.35;0.00;;;21.20;79.20;;;;;;5076408;28;20392;-74
2022/06/21 10:24:05;;;;;;;2.72;0.00;;;21.20;82.10;;;;;;5076556;28;20028;-74
2022/06/21 10:27:02;;;;;;;0.57;0.00;;;21.60;85.40;;;;;;5095044;28;20032;-74
2022/06/21 10:29:46;;;;;;;2.05;0.05;;;21.70;78.40;;;;;;5076482;28;20454;-74
2022/06/21 10:32:39;;;;;;;2.47;0.03;;;21.80;79.10;;;;;;5095112;28;20057;-75
2022/06/21 10:35:15;;;;;;;0.75;0.00;;;22.40;80.20;;;;;;5094407;28;20438;-74
2022/06/21 10:38:17;;;;;;;1.08;0.00;;;23.10;76.00;;;;;;5076168;28;20062;-74
2022/06/21 10:41:08;;;;;;;0.65;0.00;;;23.60;74.00;;;;;;5093528;28;20047;-74
2022/06/21 10:43:43;;;;;;;0.13;0.00;;;24.10;71.70;;;;;;5094283;28;20077;-74
2022/06/21 10:46:19;;;;;;;0.95;0.00;;;24.40;68.90;;;;;;5075895;28;20429;-75
2022/06/21 10:49:07;;;;;;;2.08;0.00;;;24.50;67.10;;;;;;5094406;28;20031;-74
2022/06/21 10:51:58;;;;;;;2.35;0.00;;;24.20;66.30;;;;;;5094210;28;20098;-75
2022/06/21 10:54:42;;;;;;;1.55;0.00;;;24.30;67.80;;;;;;5075988;28;20036;-75
2022/06/21 10:57:32;;;;;;;1.85;0.05;;;24.40;68.20;;;;;;5094467;28;20112;-76
2022/06/21 11:03:00;;;;;;;2.97;0.00;;;25.00;65.10;;;;;;5094405;28;20089;-76
2022/06/21 11:05:37;;;;;;;1.48;0.00;;;25.20;63.20;;;;;;5075955;28;20051;-75
2022/06/21 11:08:40;;;;;;;0.97;0.00;;;25.30;62.70;;;;;;5094292;28;20021;-76
2022/06/21 11:11:21;;;;;;;0.55;0.00;;;25.20;61.40;;;;;;5075886;28;20028;-75
2022/06/21 11:14:03;;;;;;;2.55;0.00;;;25.40;63.50;;;;;;5094050;28;20385;-75
2022/06/21 11:16:42;;;;;;;0.20;0.20;;;25.30;59.80;;;;;;5093837;28;20047;-75
2022/06/21 11:19:16;;;;;;;0.38;0.00;;;25.20;60.50;;;;;;5076455;28;20020;-75
2022/06/21 11:22:00;;;;;;;1.38;0.00;;;25.00;62.20;;;;;;5075591;28;20100;-75
2022/06/21 11:24:54;;;;;;;1.15;0.00;;;24.80;59.50;;;;;;5093964;28;20016;-75
2022/06/21 11:27:37;;;;;;;0.60;0.00;;;24.60;61.50;;;;;;5093738;28;20078;-76
2022/06/21 11:30:26;;;;;;;1.08;0.00;;;24.70;62.40;;;;;;5093826;28;20497;-75
2022/06/21 11:33:14;;;;;;;;;;;24.70;61.20;;;;;;5094713;28;20016;-75
2022/06/21 11:36:11;;;;;;;0.43;0.10;;;25.00;61.60;;;;;;5093659;28;19953;-75
2022/06/21 11:38:46;;;;;;;0.60;0.00;;;25.30;59.60;;;;;;5075594;28;20430;-76
2022/06/21 11:44:44;;;;;;;2.30;0.00;;;25.80;57.40;;;;;;5094065;28;20035;-77
2022/06/21 11:47:12;;;;;;;1.38;0.00;;;25.70;58.00;;;;;;5094057;28;20020;-75
2022/06/21 11:50:04;;;;;;;1.88;0.10;;;25.70;58.60;;;;;;5093479;28;20154;-76
2022/06/21 11:52:55;;;;;;;0.10;0.00;;;25.60;56.10;;;;;;5075352;28;20111;-75
2022/06/21 11:55:24;;;;;;;1.02;0.15;;;25.50;56.80;;;;;;5093430;28;20035;-75
2022/06/21 11:58:00;;;;;;;2.10;0.00;;;25.40;55.10;;;;;;5077156;28;20031;-76
2022/06/21 12:00:34;;;;;;;2.30;0.10;;;25.20;56.90;;;;;;5097372;28;20495;-76
2022/06/21 12:03:05;;;;;;;1.83;0.00;;;25.30;56.00;;;;;;5097342;28;20036;-76
2022/06/21 12:05:33;;;;;;;1.98;0.00;;;25.30;59.40;;;;;;5097270;28;20020;-76
2022/06/21 12:08:10;;;;;;;;;;;25.50;58.50;;;;;;5097912;28;20028;-75
2022/06/21 12:10:51;;;;;;;2.17;0.00;;;25.50;58.70;;;;;;5097889;28;20276;-75
2022/06/21 12:13:17;;;;;;;0.93;0.00;;;25.60;57.90;;;;;;5097161;28;20032;-76
2022/06/21 12:15:57;;;;;;;2.20;0.00;;;25.60;55.10;;;;;;5097222;28;20165;-76
2022/06/21 12:18:27;;;;;;;3.30;0.00;;;25.50;54.40;;;;;;5097441;28;20084;-76
2022/06/21 12:21:03;;;;;;;0.60;0.10;;;25.40;55.70;;;;;;5097139;28;20384;-76
2022/06/21 12:23:44;;;;;;;0.65;0.10;;;25.30;57.80;;;;;;5097118;28;20024;-76
2022/06/21 12:26:14;;;;;;;0.68;0.00;;;25.30;57.80;;;;;;5078910;28;20469;-76
2022/06/21 12:28:41;;;;;;;1.75;0.00;;;25.30;57.10;;;;;;5097759;28;20023;-75
2022/06/21 12:31:32;;;;;;;0.93;0.20;;;25.30;59.30;;;;;;5097076;28;20523;-75
2022/06/21 12:34:13;;;;;;;0.30;0.00;;;25.30;58.30;;;;;;5097263;28;20404;-76
2022/06/21 12:36:48;;;;;;;0.35;0.00;;;25.50;57.70;;;;;;5078766;28;20031;-75
2022/06/21 12:39:49;;;;;;;0.57;0.00;;;25.70;56.90;;;;;;5096911;28;20508;-75
2022/06/21 12:42:49;;;;;;;1.55;0.47;;;26.00;57.30;;;;;;5096886;28;20035;-75
2022/06/21 12:45:47;;;;;;;0.30;0.03;;;26.30;54.50;;;;;;5097513;28;20073;-75
2022/06/21 12:48:24;;;;;;;0.20;0.00;;;26.70;55.80;;;;;;5096743;28;20028;-76
2022/06/21 12:51:28;;;;;;;3.80;0.30;;;26.80;50.10;;;;;;5078661;28;20037;-74
2022/06/21 12:54:02;;;;;;;2.00;0.00;;;26.60;54.10;;;;;;5096612;28;20036;-75
2022/06/21 12:56:58;;;;;;;0.55;0.00;;;26.70;51.60;;;;;;5078471;28;20028;-75
2022/06/21 12:59:30;;;;;;;0.95;0.00;;;26.80;53.70;;;;;;5078147;28;20032;-76
2022/06/21 13:02:10;;;;;;;1.70;0.00;;;27.10;54.20;;;;;;5096113;28;20396;-76
2022/06/21 13:04:51;;;;;;;1.30;0.00;;;27.90;53.40;;;;;;5096869;28;20024;-76
2022/06/21 13:07:44;;;;;;;0.10;0.00;;;28.30;50.90;;;;;;5077918;28;20028;-74
2022/06/21 13:10:37;;;;;;;7.15;0.00;;;28.60;50.40;;;;;;5094991;28;20028;-74
2022/06/21 13:13:27;;;;;;;0.08;0.00;;;28.40;49.70;;;;;;5095964;28;20027;-74
2022/06/21 13:15:56;;;;;;;0.93;0.00;;;28.00;50.50;;;;;;5096222;28;20405;-73
2022/06/21 13:18:36;;;;;;;1.75;0.10;;;27.90;50.50;;;;;;5095881;28;20044;-74
2022/06/21 13:21:12;;;;;;;2.85;0.10;;;27.60;51.50;;;;;;5096349;28;20081;-74
2022/06/21 13:23:53;;;;;;;3.47;0.00;;;27.20;50.80;;;;;;5096124;28;20503;-73
2022/06/21 13:27:00;;;;;;;0.10;0.00;;;27.00;51.10;;;;;;5077414;28;20055;-73
2022/06/21 13:29:53;;;;;;;0.88;0.22;;;26.80;50.90;;;;;;5095620;28;20020;-73
2022/06/21 13:32:29;;;;;;;1.25;0.00;;;26.90;54.40;;;;;;5095605;28;20028;-74
2022/06/21 13:35:21;;;;;;;1.27;0.00;;;27.00;53.70;;;;;;5095765;28;20495;-74
2022/06/21 13:37:59;;;;;;;0.98;0.10;;;26.90;50.80;;;;;;5077359;28;20111;-74
2022/06/21 13:40:45;;;;;;;0.10;0.00;;;26.80;50.90;;;;;;5096138;28;20017;-74
2022/06/21 13:43:27;;;;;;;0.63;0.00;;;26.70;52.20;;;;;;5077074;28;20021;-74
2022/06/21 13:46:04;;;;;;;2.30;0.00;;;26.70;51.80;;;;;;5077233;28;20431;-74
2022/06/21 13:48:47;;;;;;;0.47;0.00;;;26.60;51.90;;;;;;5095632;28;20020;-74
2022/06/21 13:51:18;;;;;;;1.75;0.00;;;26.50;51.70;;;;;;5077082;28;20028;-74
2022/06/21 13:53:50;;;;;;;2.65;0.00;;;26.50;52.70;;;;;;5095769;28;20051;-74
2022/06/21 13:56:29;;;;;;;0.65;0.00;;;26.70;51.50;;;;;;5095681;28;20032;-73
2022/06/21 13:59:16;;;;;;;0.70;0.17;;;26.80;51.80;;;;;;5077086;28;20062;-74
2022/06/21 14:01:50;;;;;;;0.50;0.00;;;27.00;51.40;;;;;;5095193;28;20064;-75
2022/06/21 14:04:39;;;;;;;1.95;0.00;;;27.30;49.40;;;;;;5076944;28;20024;-75